Time;durP1;ratioP1;P1;durP2;ratioP2;P2;SDS_P1;SDS_P2;PMS_P1;PMS_P2;Temp;Humidity;BMP_temperature;BMP_pressure;BME280_temperature;BME280_humidity;BME280_pressure;Samples;Min_cycle;Max_cycle;Signal;HPM_P1;HPM_P2
2022/10/13 00:00:37;;;;;;;55.67;23.65;;;;;;;12.77;85.98;100497.84;5052151;28;20135;-88
2022/10/13 00:03:04;;;;;;;61.75;23.20;;;;;;;12.81;86.07;100504.59;5028727;28;20044;-88
2022/10/13 00:05:31;;;;;;;50.75;22.85;;;;;;;12.78;86.11;100497.72;5059255;28;20555;-87
2022/10/13 00:08:00;;;;;;;63.17;24.50;;;;;;;12.74;85.82;100498.94;5049291;28;20114;-88
2022/10/13 00:10:29;;;;;;;67.20;23.33;;;;;;;12.76;85.85;100496.16;5030512;28;20135;-88
2022/10/13 00:12:56;;;;;;;51.90;23.45;;;;;;;12.75;85.74;100499.81;5054423;28;20047;-88
2022/10/13 00:15:24;;;;;;;72.97;23.15;;;;;;;12.75;85.87;100503.31;5053178;28;20109;-89
2022/10/13 00:17:51;;;;;;;59.40;21.88;;;;;;;12.70;86.21;100494.03;5057096;28;20048;-88
2022/10/13 00:20:18;;;;;;;59.03;24.35;;;;;;;12.71;86.22;100493.06;5045783;28;20132;-88
2022/10/13 00:22:45;;;;;;;58.28;23.05;;;;;;;12.75;86.16;100487.31;5026765;28;20424;-88
2022/10/13 00:25:12;;;;;;;50.67;22.50;;;;;;;12.76;86.14;100497.00;5054996;28;20040;-88
2022/10/13 00:27:38;;;;;;;48.80;21.40;;;;;;;12.81;85.89;100488.59;5026249;28;20048;-88
2022/10/13 00:30:06;;;;;;;41.08;19.80;;;;;;;12.80;85.86;100482.44;5043243;28;20405;-88
2022/10/13 00:32:32;;;;;;;45.97;19.50;;;;;;;12.78;85.52;100487.06;5044387;28;20513;-88
2022/10/13 00:34:59;;;;;;;34.42;17.33;;;;;;;12.75;84.96;100484.66;5041624;28;20057;-88
2022/10/13 00:37:26;;;;;;;37.25;18.63;;;;;;;12.74;84.52;100490.94;5056636;28;20045;-88
2022/10/13 00:39:53;;;;;;;33.38;17.20;;;;;;;12.74;84.55;100490.94;5039861;28;20076;-88
2022/10/13 00:42:22;;;;;;;40.88;18.05;;;;;;;12.72;84.49;100489.41;5027281;28;20135;-88
2022/10/13 00:44:56;;;;;;;40.03;17.58;;;;;;;12.63;83.88;100488.38;5027281;28;20044;-89
2022/10/13 00:47:24;;;;;;;32.35;16.95;;;;;;;12.61;84.10;100493.00;5037742;28;20044;-88
2022/10/13 00:49:52;;;;;;;45.80;18.35;;;;;;;12.58;84.14;100490.59;5015603;28;20110;-88
2022/10/13 00:52:19;;;;;;;42.00;18.73;;;;;;;12.58;84.38;100485.28;5071982;28;20095;-88
2022/10/13 00:54:47;;;;;;;42.50;19.90;;;;;;;12.54;85.02;100484.72;5084430;28;20068;-89
2022/10/13 00:57:18;;;;;;;41.60;20.15;;;;;;;12.52;85.21;100486.66;5059218;28;20112;-89
2022/10/13 00:59:45;;;;;;;38.20;18.55;;;;;;;12.56;85.40;100480.06;5045445;28;20060;-89
2022/10/13 01:02:12;;;;;;;73.35;20.40;;;;;;;12.53;85.53;100485.66;5037409;28;20052;-88
2022/10/13 01:04:43;;;;;;;59.70;21.30;;;;;;;12.45;84.65;100487.31;5039973;28;20055;-89
2022/10/13 01:07:09;;;;;;;87.10;22.20;;;;;;;12.49;85.20;100488.72;5076193;28;20090;-89
2022/10/13 01:09:36;;;;;;;54.47;21.65;;;;;;;12.44;85.43;100485.59;5045206;28;20490;-89
2022/10/13 01:12:11;;;;;;;64.28;21.45;;;;;;;12.29;85.78;100477.16;5038348;28;20061;-90
2022/10/13 01:14:49;;;;;;;53.88;20.20;;;;;;;12.29;85.74;100477.97;5048105;28;20052;-89
2022/10/13 01:17:43;;;;;;;52.75;21.02;;;;;;;12.27;86.09;100482.59;5039343;28;20064;-88
2022/10/13 01:20:31;;;;;;;77.82;21.88;;;;;;;12.26;85.98;100478.25;5049077;28;20400;-89
2022/10/13 01:23:15;;;;;;;44.72;20.05;;;;;;;12.46;85.89;100481.00;5054309;28;20049;-89
2022/10/13 01:26:06;;;;;;;35.33;17.88;;;;;;;12.34;85.35;100478.44;5056329;28;20101;-89
2022/10/13 01:28:58;;;;;;;35.42;18.30;;;;;;;12.34;85.17;100480.25;5042474;28;20075;-88
2022/10/13 01:31:36;;;;;;;32.67;16.08;;;;;;;12.39;84.93;100475.38;5062642;28;20048;-89
2022/10/13 01:34:14;;;;;;;31.35;15.57;;;;;;;12.41;84.05;100480.56;5046144;28;20536;-88
2022/10/13 01:37:08;;;;;;;47.28;21.60;;;;;;;12.40;83.24;100476.22;5077748;28;20032;-89
2022/10/13 01:39:56;;;;;;;38.85;19.23;;;;;;;12.45;83.65;100468.69;5081738;28;20035;-88
2022/10/13 01:42:28;;;;;;;29.83;16.35;;;;;;;12.46;83.76;100465.03;5059271;28;20120;-89
2022/10/13 01:44:59;;;;;;;35.87;18.73;;;;;;;12.40;83.97;100460.25;5058056;28;20098;-89
2022/10/13 01:47:27;;;;;;;36.03;16.90;;;;;;;12.48;83.56;100463.06;5079970;28;20052;-88
2022/10/13 01:49:55;;;;;;;42.70;17.38;;;;;;;12.53;83.53;100461.69;5042535;28;20057;-89
2022/10/13 01:52:25;;;;;;;43.45;17.27;;;;;;;12.47;83.68;100456.91;5058924;28;20407;-89
2022/10/13 01:54:52;;;;;;;29.17;16.05;;;;;;;12.54;83.51;100462.53;5044958;28;20401;-89
2022/10/13 01:57:33;;;;;;;36.25;17.13;;;;;;;12.45;83.14;100464.19;5048937;28;20041;-90
2022/10/13 02:00:06;;;;;;;32.53;15.80;;;;;;;12.53;82.99;100461.69;5038583;28;20487;-89
2022/10/13 02:02:53;;;;;;;32.25;15.77;;;;;;;12.36;83.43;100468.50;5056841;28;20510;-88
2022/10/13 02:05:48;;;;;;;37.00;16.15;;;;;;;12.45;83.49;100463.34;5068256;28;20052;-90
2022/10/13 02:08:24;;;;;;;38.00;16.92;;;;;;;12.37;83.96;100458.69;5014405;28;20060;-87
2022/10/13 02:10:57;;;;;;;38.33;17.85;;;;;;;12.45;83.99;100463.34;5023506;28;20500;-88
2022/10/13 02:13:25;;;;;;;;;;;;;;;12.05;84.43;100462.25;5077149;28;20059;-88
2022/10/13 02:15:54;;;;;;;53.50;21.70;;;;;;;12.33;83.85;100463.41;5040967;28;19920;-88
2022/10/13 02:18:28;;;;;;;65.30;22.85;;;;;;;12.34;83.30;100462.44;5039681;28;20040;-88
2022/10/13 02:20:55;;;;;;;61.65;22.63;;;;;;;12.34;83.54;100466.94;5030709;28;20161;-89
2022/10/13 02:23:22;;;;;;;53.67;20.85;;;;;;;12.31;83.86;100465.38;5049817;28;20053;-89
2022/10/13 02:25:50;;;;;;;63.50;22.85;;;;;;;12.27;84.04;100461.28;5027695;28;20480;-88
2022/10/13 02:28:17;;;;;;;61.60;21.98;;;;;;;12.26;83.70;100459.59;5054775;28;20082;-89
2022/10/13 02:30:44;;;;;;;46.10;20.50;;;;;;;12.29;83.92;100461.16;5042996;28;20056;-89
2022/10/13 02:33:13;;;;;;;58.65;22.10;;;;;;;12.29;83.47;100464.66;5046709;28;20072;-89
2022/10/13 02:35:40;;;;;;;54.67;21.85;;;;;;;12.29;83.82;100456.69;5041050;28;20107;-88
2022/10/13 02:38:08;;;;;;;55.58;21.77;;;;;;;12.24;83.80;100460.72;5058391;28;20056;-89
2022/10/13 02:40:35;;;;;;;54.55;22.75;;;;;;;12.24;83.64;100461.56;5040119;28;20082;-88
2022/10/13 02:43:02;;;;;;;56.28;22.27;;;;;;;12.23;83.90;100467.84;5044988;28;20098;-88
2022/10/13 02:45:29;;;;;;;50.88;21.63;;;;;;;12.25;83.62;100463.22;5040632;28;20040;-88
2022/10/13 02:47:56;;;;;;;55.10;21.00;;;;;;;12.24;83.50;100466.88;5078200;28;20040;-88
2022/10/13 02:50:23;;;;;;;48.25;20.75;;;;;;;12.27;83.49;100471.09;5058847;28;20044;-87
2022/10/13 02:52:50;;;;;;;49.15;22.00;;;;;;;12.25;83.78;100467.72;5027549;28;20049;-88
2022/10/13 02:55:16;;;;;;;53.55;21.55;;;;;;;12.23;83.68;100467.00;5059919;28;20093;-88
2022/10/13 02:57:44;;;;;;;59.78;21.20;;;;;;;12.18;83.83;100464.72;5049950;28;20105;-88
2022/10/13 03:00:14;;;;;;;53.65;22.08;;;;;;;12.18;83.83;100463.88;5014761;28;20044;-89
2022/10/13 03:02:41;;;;;;;48.70;22.02;;;;;;;12.12;84.04;100471.41;5024052;28;20056;-88
2022/10/13 03:05:09;;;;;;;61.20;22.10;;;;;;;12.16;83.85;100461.34;5023035;28;20048;-88
2022/10/13 03:07:35;;;;;;;54.63;22.08;;;;;;;12.18;83.91;100458.56;5057325;28;20461;-89
2022/10/13 03:10:03;;;;;;;61.58;22.33;;;;;;;12.17;83.90;100449.72;5049424;28;20048;-89
2022/10/13 03:12:31;;;;;;;51.58;20.55;;;;;;;12.15;83.98;100463.16;5037763;28;20056;-89
2022/10/13 03:14:57;;;;;;;56.90;21.98;;;;;;;12.12;83.86;100451.94;5043042;28;20051;-89
2022/10/13 03:17:24;;;;;;;58.95;22.48;;;;;;;12.13;83.95;100446.47;5036247;28;20094;-88
2022/10/13 03:19:51;;;;;;;46.22;19.83;;;;;;;12.16;83.20;100443.56;5036212;28;20527;-89
2022/10/13 03:22:18;;;;;;;59.92;19.58;;;;;;;12.13;83.12;100438.47;5053439;28;20037;-88
2022/10/13 03:24:45;;;;;;;49.65;21.42;;;;;;;12.17;83.33;100444.41;5044884;28;20522;-88
2022/10/13 03:27:12;;;;;;;56.92;20.38;;;;;;;12.16;83.14;100438.25;5074643;28;20040;-88
2022/10/13 03:29:39;;;;;;;56.42;21.17;;;;;;;12.19;82.85;100447.78;5065685;28;20052;-89
2022/10/13 03:32:06;;;;;;;51.75;18.83;;;;;;;12.14;83.67;100436.69;5044243;28;20046;-89
2022/10/13 03:34:32;;;;;;;48.03;19.30;;;;;;;12.21;83.20;100445.81;5036713;28;20081;-89
2022/10/13 03:36:59;;;;;;;48.92;21.00;;;;;;;12.22;83.07;100447.53;5038681;28;20051;-89
2022/10/13 03:39:30;;;;;;;59.83;21.05;;;;;;;12.22;82.92;100444.84;5046343;28;20143;-89
2022/10/13 03:41:57;;;;;;;65.88;23.05;;;;;;;12.17;83.16;100444.41;5061386;28;20584;-89
2022/10/13 03:44:24;;;;;;;65.65;22.85;;;;;;;12.13;83.50;100442.97;5045998;28;20555;-89
2022/10/13 03:46:51;;;;;;;61.17;22.35;;;;;;;12.13;83.35;100441.16;5042436;28;20051;-89
2022/10/13 03:49:17;;;;;;;70.70;22.65;;;;;;;12.08;83.56;100439.84;5035686;28;20048;-89
2022/10/13 03:51:45;;;;;;;66.25;22.23;;;;;;;12.07;83.84;100446.16;5038791;28;20057;-88
2022/10/13 03:54:11;;;;;;;76.90;24.52;;;;;;;12.12;83.52;100441.28;5053663;28;20093;-88
2022/10/13 03:56:39;;;;;;;67.55;22.40;;;;;;;12.07;83.69;100435.53;5024353;28;20128;-88
2022/10/13 03:59:06;;;;;;;70.22;22.88;;;;;;;12.06;84.08;100442.66;5060181;28;20052;-89
2022/10/13 04:01:32;;;;;;;68.28;22.05;;;;;;;12.02;84.34;100440.38;5060024;28;20182;-89
2022/10/13 04:04:03;;;;;;;85.95;25.70;;;;;;;12.08;84.05;100426.53;5035783;28;20079;-88
2022/10/13 04:06:30;;;;;;;82.90;24.77;;;;;;;12.05;84.18;100429.47;5019591;28;20099;-89
2022/10/13 04:08:57;;;;;;;71.00;24.70;;;;;;;12.10;84.21;100438.75;5027593;28;20052;-89
2022/10/13 04:11:24;;;;;;;74.65;23.23;;;;;;;12.09;84.06;100426.44;5057420;28;20052;-89
2022/10/13 04:13:55;;;;;;;76.43;23.70;;;;;;;12.09;84.12;100433.56;5062056;28;20055;-89
2022/10/13 04:16:24;;;;;;;74.78;22.17;;;;;;;12.07;84.28;100436.34;5023689;28;20091;-89
2022/10/13 04:18:57;;;;;;;76.03;22.83;;;;;;;12.04;84.37;100433.13;5038452;28;20044;-89
2022/10/13 04:21:25;;;;;;;67.53;22.30;;;;;;;12.08;84.46;100430.03;5038437;28;20071;-89
2022/10/13 04:23:56;;;;;;;67.30;24.42;;;;;;;12.04;84.17;100422.47;5048026;28;21394;-89
2022/10/13 04:26:25;;;;;;;84.07;23.05;;;;;;;12.15;84.04;100420.56;5063450;28;20044;-88
2022/10/13 04:28:55;;;;;;;71.13;23.05;;;;;;;12.13;84.12;100422.50;5058302;28;20113;-88
2022/10/13 04:31:22;;;;;;;81.47;23.92;;;;;;;12.14;84.51;100426.88;5047415;28;20045;-89
2022/10/13 04:33:50;;;;;;;79.47;24.00;;;;;;;12.15;84.52;100425.88;5042472;28;20040;-88
2022/10/13 04:36:18;;;;;;;67.95;24.05;;;;;;;12.19;84.60;100429.16;5080495;28;20037;-88
2022/10/13 04:38:48;;;;;;;72.47;25.00;;;;;;;12.18;84.66;100427.44;5037199;28;20577;-89
2022/10/13 04:41:16;;;;;;;71.38;23.52;;;;;;;12.13;84.98;100432.31;5051138;28;20048;-88
2022/10/13 04:43:47;;;;;;;77.57;23.75;;;;;;;12.05;85.27;100419.66;5059163;28;20048;-88
2022/10/13 04:46:17;;;;;;;77.13;24.13;;;;;;;12.12;85.01;100420.84;5079553;28;20059;-88
2022/10/13 04:48:45;;;;;;;66.90;21.30;;;;;;;12.16;84.91;100413.41;5060549;28;20534;-89
2022/10/13 04:51:15;;;;;;;83.10;23.67;;;;;;;12.20;84.77;100417.50;5043609;28;20056;-88
2022/10/13 04:53:42;;;;;;;72.25;22.60;;;;;;;12.23;84.81;100411.91;5038526;28;20479;-89
2022/10/13 04:56:15;;;;;;;69.03;23.40;;;;;;;12.20;84.75;100414.84;5038093;28;20048;-89
2022/10/13 04:58:44;;;;;;;71.25;22.60;;;;;;;12.19;85.11;100418.50;5061056;28;20039;-89
2022/10/13 05:01:20;;;;;;;92.07;25.02;;;;;;;12.13;85.62;100421.66;5045459;28;20044;-88
2022/10/13 05:03:56;;;;;;;84.28;23.33;;;;;;;12.16;85.56;100430.25;5044931;28;20049;-89
2022/10/13 05:06:26;;;;;;;77.50;22.98;;;;;;;12.17;85.55;100431.09;5051465;28;20064;-89
2022/10/13 05:08:56;;;;;;;83.38;24.25;;;;;;;12.16;85.84;100429.38;5029444;28;20060;-86
2022/10/13 05:11:25;;;;;;;78.90;23.95;;;;;;;12.20;86.10;100430.00;5039648;28;20094;-85
2022/10/13 05:13:52;;;;;;;145.63;27.55;;;;;;;12.19;86.35;100434.47;5059018;28;20060;-86
2022/10/13 05:16:20;;;;;;;101.88;27.85;;;;;;;12.16;86.79;100432.91;5061261;28;20036;-85
2022/10/13 05:18:47;;;;;;;101.78;26.38;;;;;;;12.21;86.50;100426.34;5075144;28;20492;-85
2022/10/13 05:21:18;;;;;;;97.90;29.20;;;;;;;12.19;86.68;100436.28;5058543;28;20044;-85
2022/10/13 05:23:44;;;;;;;107.45;28.60;;;;;;;12.22;86.75;100426.22;5047866;28;20044;-86
2022/10/13 05:26:13;;;;;;;117.85;29.10;;;;;;;12.24;86.72;100439.41;5062061;28;20075;-86
2022/10/13 05:28:40;;;;;;;124.20;28.10;;;;;;;12.22;86.90;100436.03;5065713;28;20095;-87
2022/10/13 05:31:19;;;;;;;125.30;30.67;;;;;;;12.09;87.51;100436.25;5053877;28;20444;-86
2022/10/13 05:33:46;;;;;;;101.20;30.10;;;;;;;12.22;86.96;100439.53;5051135;28;20044;-86
2022/10/13 05:36:26;;;;;;;119.97;29.33;;;;;;;12.14;87.73;100439.34;5049077;28;20419;-87
2022/10/13 05:38:55;;;;;;;105.93;32.10;;;;;;;12.20;87.43;100432.66;5063178;28;20059;-87
2022/10/13 05:41:23;;;;;;;122.75;31.73;;;;;;;12.24;87.37;100436.75;5033501;28;20048;-87
2022/10/13 05:43:53;;;;;;;99.05;28.52;;;;;;;12.27;87.16;100428.50;5047186;28;20052;-86
2022/10/13 05:46:19;;;;;;;96.82;26.73;;;;;;;12.25;87.44;100425.94;5053975;28;20400;-86
2022/10/13 05:48:46;;;;;;;115.18;28.13;;;;;;;12.23;87.60;100417.25;5060290;28;20102;-86
2022/10/13 05:51:19;;;;;;;111.95;28.80;;;;;;;12.15;88.18;100419.72;5060910;28;20068;-85
2022/10/13 05:53:52;;;;;;;97.78;28.00;;;;;;;12.15;88.19;100409.91;5087264;28;20082;-86
2022/10/13 05:56:26;;;;;;;93.82;27.40;;;;;;;12.17;88.20;100415.13;5056724;28;20496;-86
2022/10/13 05:58:56;;;;;;;89.03;26.10;;;;;;;12.22;88.07;100412.06;5060407;28;20075;-87
2022/10/13 06:01:24;;;;;;;92.07;25.25;;;;;;;12.25;87.94;100411.78;5053201;28;20072;-85
2022/10/13 06:03:52;;;;;;;85.07;24.08;;;;;;;12.21;87.94;100413.88;5046640;28;20067;-86
2022/10/13 06:06:21;;;;;;;94.28;25.83;;;;;;;12.27;87.58;100417.84;5071935;28;20044;-87
2022/10/13 06:08:49;;;;;;;106.05;26.77;;;;;;;12.30;87.42;100410.41;5075618;28;20090;-85
2022/10/13 06:11:16;;;;;;;100.78;26.98;;;;;;;12.31;87.55;100411.25;5046437;28;20056;-86
2022/10/13 06:13:43;;;;;;;100.22;25.15;;;;;;;12.30;87.91;100415.75;5041814;28;20067;-86
2022/10/13 06:16:09;;;;;;;111.50;26.60;;;;;;;12.31;88.04;100405.94;5042600;28;20090;-86
2022/10/13 06:18:36;;;;;;;103.80;27.67;;;;;;;12.26;88.60;100409.00;5062794;28;20076;-85
2022/10/13 06:21:03;;;;;;;94.45;26.65;;;;;;;12.27;88.48;100397.38;5078582;28;20044;-85
2022/10/13 06:23:30;;;;;;;104.35;27.08;;;;;;;12.31;88.73;100398.81;5038660;28;20048;-85
2022/10/13 06:25:56;;;;;;;109.90;25.90;;;;;;;12.36;88.69;100401.03;5057606;28;20097;-86
2022/10/13 06:28:23;;;;;;;112.03;31.08;;;;;;;12.33;89.13;100401.31;5046039;28;20098;-87
2022/10/13 06:30:55;;;;;;;126.05;31.05;;;;;;;12.38;89.00;100394.59;5081479;28;20393;-87
2022/10/13 06:33:23;;;;;;;126.00;28.98;;;;;;;12.41;88.69;100388.16;5056888;28;20063;-87
2022/10/13 06:35:51;;;;;;;107.43;27.98;;;;;;;12.46;88.60;100385.94;5045631;28;20036;-87
2022/10/13 06:38:18;;;;;;;109.70;28.27;;;;;;;12.50;88.60;100381.22;5079718;28;20036;-88
2022/10/13 06:40:47;;;;;;;125.10;30.20;;;;;;;12.49;88.43;100382.19;5065622;28;20048;-87
2022/10/13 06:43:13;;;;;;;117.65;29.13;;;;;;;12.53;88.64;100383.59;5061211;28;20033;-87
2022/10/13 06:45:40;;;;;;;101.05;29.25;;;;;;;12.52;88.96;100395.25;5042470;28;20044;-86
2022/10/13 06:48:07;;;;;;;101.10;25.17;;;;;;;12.53;89.37;100394.25;5044473;28;20078;-86
2022/10/13 06:50:34;;;;;;;113.32;28.10;;;;;;;12.58;88.99;100394.69;5065313;28;20498;-86
2022/10/13 06:53:07;;;;;;;103.32;25.88;;;;;;;12.58;89.19;100400.03;5078357;28;20102;-86
2022/10/13 06:55:34;;;;;;;94.03;23.35;;;;;;;12.63;89.02;100396.97;5078109;28;20048;-86
2022/10/13 06:58:00;;;;;;;102.22;27.95;;;;;;;12.65;89.01;100395.00;5056197;28;20044;-86
2022/10/13 07:00:27;;;;;;;102.85;26.23;;;;;;;12.65;89.11;100395.00;5061070;28;20189;-87
2022/10/13 07:02:54;;;;;;;102.95;25.98;;;;;;;12.66;89.13;100392.19;5063437;28;20124;-87
2022/10/13 07:05:21;;;;;;;97.15;25.58;;;;;;;12.60;89.53;100390.91;5067473;28;20455;-86
2022/10/13 07:07:51;;;;;;;101.05;25.60;;;;;;;12.61;89.33;100386.44;5061357;28;20545;-86
2022/10/13 07:10:17;;;;;;;109.28;26.13;;;;;;;12.66;89.45;100384.19;5042325;28;20438;-86
2022/10/13 07:12:44;;;;;;;99.30;25.95;;;;;;;12.61;90.21;100383.75;5051521;28;20129;-84
2022/10/13 07:15:11;;;;;;;95.78;24.23;;;;;;;12.62;90.13;100381.94;5047532;28;20445;-84
2022/10/13 07:17:38;;;;;;;110.57;26.90;;;;;;;12.66;89.93;100378.88;5063442;28;20044;-84
2022/10/13 07:20:05;;;;;;;110.30;26.00;;;;;;;12.62;90.39;100371.28;5053320;28;20056;-87
2022/10/13 07:22:33;;;;;;;91.28;24.42;;;;;;;12.66;90.19;100370.03;5070281;28;20119;-83
2022/10/13 07:25:00;;;;;;;89.25;24.80;;;;;;;12.66;89.98;100368.22;5074438;28;20056;-84
2022/10/13 07:27:27;;;;;;;85.07;25.75;;;;;;;12.66;90.00;100373.53;5038555;28;20060;-86
2022/10/13 07:29:54;;;;;;;95.40;27.05;;;;;;;12.72;89.49;100369.47;5051561;28;20048;-83
2022/10/13 07:32:21;;;;;;;79.35;23.80;;;;;;;12.74;89.28;100372.84;5055200;28;20044;-83
2022/10/13 07:34:52;;;;;;;72.30;22.85;;;;;;;12.73;89.17;100373.84;5070720;28;20052;-83
2022/10/13 07:37:18;;;;;;;78.40;24.48;;;;;;;12.74;89.46;100379.03;5074689;28;20102;-83
2022/10/13 07:39:46;;;;;;;73.68;25.20;;;;;;;12.78;89.05;100379.63;5047043;28;20575;-85
2022/10/13 07:42:12;;;;;;;77.55;24.05;;;;;;;12.76;89.51;100381.56;5079701;28;20072;-84
2022/10/13 07:44:39;;;;;;;88.45;25.42;;;;;;;12.78;89.59;100376.94;5071458;28;20040;-85
2022/10/13 07:47:06;;;;;;;80.35;25.67;;;;;;;12.78;89.22;100375.13;5057691;28;20049;-85
2022/10/13 07:49:32;;;;;;;83.82;27.40;;;;;;;12.81;89.29;100380.19;5079933;28;20475;-85
2022/10/13 07:52:03;;;;;;;89.68;27.02;;;;;;;12.79;89.58;100378.63;5076209;28;20051;-86
2022/10/13 07:54:29;;;;;;;90.63;26.45;;;;;;;12.81;89.67;100382.84;5053170;28;20041;-84
2022/10/13 07:56:56;;;;;;;96.03;27.65;;;;;;;12.87;89.44;100389.44;5027435;28;20049;-84
2022/10/13 07:59:23;;;;;;;85.13;25.85;;;;;;;12.87;89.33;100386.78;5054676;28;20047;-84
2022/10/13 08:01:50;;;;;;;75.13;26.17;;;;;;;12.90;89.15;100375.84;5076582;28;20049;-83
2022/10/13 08:04:17;;;;;;;85.63;26.63;;;;;;;12.94;89.19;100374.59;5039321;28;20094;-84
2022/10/13 08:06:47;;;;;;;71.82;25.50;;;;;;;12.97;89.12;100387.63;5058721;28;20067;-85
2022/10/13 08:09:25;;;;;;;80.88;27.33;;;;;;;12.96;89.31;100380.63;5029089;28;20472;-85
2022/10/13 08:11:57;;;;;;;71.40;25.45;;;;;;;12.95;89.13;100383.41;5055606;28;20475;-83
2022/10/13 08:14:27;;;;;;;79.15;27.17;;;;;;;13.05;89.43;100362.94;5040243;28;20139;-84
2022/10/13 08:16:55;;;;;;;70.50;25.05;;;;;;;13.13;88.58;100357.78;5065593;28;20466;-83
2022/10/13 08:19:22;;;;;;;74.85;26.02;;;;;;;13.19;88.44;100359.06;5061757;28;20028;-83
2022/10/13 08:21:49;;;;;;;79.03;25.85;;;;;;;13.23;88.32;100355.97;5068746;28;20052;-84
2022/10/13 08:24:26;;;;;;;71.93;26.40;;;;;;;13.31;88.36;100367.78;5040975;28;20098;-83
2022/10/13 08:26:54;;;;;;;75.85;29.88;;;;;;;13.35;88.10;100363.84;5029397;28;20048;-84
2022/10/13 08:29:20;;;;;;;74.32;29.58;;;;;;;13.38;88.12;100360.88;5055496;28;20491;-86
2022/10/13 08:31:51;;;;;;;67.82;26.48;;;;;;;13.40;87.86;100367.78;5075871;28;20104;-86
2022/10/13 08:34:18;;;;;;;76.35;27.80;;;;;;;13.43;87.87;100370.19;5028354;28;20483;-86
2022/10/13 08:36:45;;;;;;;72.28;26.63;;;;;;;13.44;87.84;100368.34;5026521;28;20067;-88
2022/10/13 08:39:12;;;;;;;80.07;27.88;;;;;;;13.47;87.78;100370.72;5056226;28;20049;-87
2022/10/13 08:41:45;;;;;;;67.35;28.13;;;;;;;13.45;87.67;100370.84;5065024;28;20122;-86
2022/10/13 08:44:22;;;;;;;67.27;27.27;;;;;;;13.44;87.72;100363.00;5058954;28;20044;-85
2022/10/13 08:47:12;;;;;;;75.40;29.38;;;;;;;13.50;87.84;100354.44;5051260;28;20126;-86
2022/10/13 08:49:41;;;;;;;72.60;28.45;;;;;;;13.53;87.75;100347.97;5071007;28;20044;-84
2022/10/13 08:52:28;;;;;;;75.35;27.85;;;;;;;13.46;87.77;100337.88;5040986;28;20052;-86
2022/10/13 08:54:56;;;;;;;69.78;28.50;;;;;;;13.57;87.64;100342.22;5028141;28;20052;-85
2022/10/13 08:57:23;;;;;;;70.00;28.45;;;;;;;13.61;87.80;100345.41;5055655;28;20032;-85
2022/10/13 08:59:51;;;;;;;66.70;28.48;;;;;;;13.63;87.67;100344.28;5056492;28;20040;-86
2022/10/13 09:02:29;;;;;;;70.35;27.90;;;;;;;13.56;87.68;100348.53;5044402;28;20441;-86
2022/10/13 09:04:58;;;;;;;68.97;26.85;;;;;;;13.65;87.61;100360.19;5038522;28;20192;-87
2022/10/13 09:07:28;;;;;;;67.85;28.98;;;;;;;13.66;87.40;100362.72;5021553;28;20395;-87
2022/10/13 09:09:55;;;;;;;78.47;30.73;;;;;;;13.68;87.71;100362.56;5041183;28;20101;-85
2022/10/13 09:12:23;;;;;;;68.72;27.98;;;;;;;13.71;87.65;100361.44;5073528;28;20124;-85
2022/10/13 09:15:02;;;;;;;69.93;27.00;;;;;;;13.67;87.85;100358.22;5045003;28;20051;-86
2022/10/13 09:17:28;;;;;;;69.22;27.60;;;;;;;13.76;87.77;100353.84;5062779;28;20037;-87
2022/10/13 09:20:06;;;;;;;71.68;29.02;;;;;;;13.75;87.62;100353.00;5038789;28;20055;-87
2022/10/13 09:22:38;;;;;;;62.00;26.27;;;;;;;13.80;87.55;100341.91;5057634;28;20040;-86
2022/10/13 09:25:10;;;;;;;64.40;27.58;;;;;;;13.81;87.54;100351.56;5053670;28;20462;-84
2022/10/13 09:27:42;;;;;;;68.97;29.05;;;;;;;13.78;87.41;100341.19;5060725;28;20040;-85
2022/10/13 09:30:37;;;;;;;74.10;30.25;;;;;;;13.74;87.91;100347.78;5075717;28;20039;-85
2022/10/13 09:33:07;;;;;;;71.15;27.02;;;;;;;13.79;87.80;100351.72;5072194;28;20075;-84
2022/10/13 09:35:35;;;;;;;68.47;27.55;;;;;;;13.79;87.69;100356.22;5071622;28;20070;-85
2022/10/13 09:38:16;;;;;;;67.82;28.45;;;;;;;13.74;87.68;100358.47;5042093;28;20068;-83
2022/10/13 09:41:23;;;;;;;59.53;24.95;;;;;;;13.69;87.77;100358.91;5064605;28;20040;-83
2022/10/13 09:43:50;;;;;;;71.10;29.42;;;;;;;13.74;87.87;100364.66;5031202;28;20105;-83
2022/10/13 09:46:31;;;;;;;67.65;27.00;;;;;;;13.64;88.15;100364.69;5060403;28;20044;-84
2022/10/13 09:49:18;;;;;;;74.25;28.60;;;;;;;13.66;87.91;100359.19;5034812;28;20110;-83
2022/10/13 09:51:45;;;;;;;74.57;31.27;;;;;;;13.72;88.03;100361.28;5079403;28;20048;-83
2022/10/13 09:54:33;;;;;;;64.63;28.08;;;;;;;13.67;87.97;100356.38;5058582;28;20052;-82
2022/10/13 09:57:04;;;;;;;76.60;31.73;;;;;;;13.72;88.16;100355.97;5072349;28;20129;-82
2022/10/13 09:59:34;;;;;;;72.47;28.65;;;;;;;13.74;88.48;100358.47;5077642;28;20071;-82
2022/10/13 10:02:24;;;;;;;60.22;25.13;;;;;;;13.70;88.33;100354.41;5079587;28;20043;-81
2022/10/13 10:04:54;;;;;;;72.97;29.67;;;;;;;13.78;88.35;100354.53;5084488;28;20072;-81
2022/10/13 10:07:24;;;;;;;68.78;30.02;;;;;;;13.79;88.43;100345.53;5056788;28;20507;-82
2022/10/13 10:09:57;;;;;;;71.22;29.60;;;;;;;13.79;88.82;100348.19;5059902;28;20098;-83
2022/10/13 10:12:28;;;;;;;76.95;30.48;;;;;;;13.78;88.76;100343.84;5074976;28;20046;-83
2022/10/13 10:14:54;;;;;;;72.50;30.25;;;;;;;13.79;88.85;100348.19;5045827;28;20479;-83
2022/10/13 10:17:36;;;;;;;75.45;30.13;;;;;;;13.75;88.94;100352.16;5044029;28;20044;-82
2022/10/13 10:20:21;;;;;;;64.65;25.80;;;;;;;13.79;89.07;100350.88;5061956;28;20047;-83
2022/10/13 10:22:56;;;;;;;67.32;27.75;;;;;;;13.76;88.92;100351.16;5062889;28;20052;-82
2022/10/13 10:25:51;;;;;;;75.80;27.90;;;;;;;13.72;89.12;100355.97;5055980;28;20043;-82
2022/10/13 10:28:56;;;;;;;68.97;28.48;;;;;;;13.66;89.38;100346.69;5046809;28;20048;-81
2022/10/13 10:31:32;;;;;;;81.40;32.30;;;;;;;13.69;90.05;100342.91;5039757;28;20044;-82
2022/10/13 10:34:21;;;;;;;78.38;30.75;;;;;;;13.64;90.28;100340.66;5076492;28;20048;-82
2022/10/13 10:36:47;;;;;;;73.32;29.98;;;;;;;13.73;89.99;100346.94;5072639;28;20037;-82
2022/10/13 10:39:17;;;;;;;77.63;30.63;;;;;;;13.73;89.99;100346.94;5058079;28;20041;-81
2022/10/13 10:41:53;;;;;;;77.38;33.42;;;;;;;13.71;90.34;100346.25;5077558;28;20037;-84
2022/10/13 10:44:35;;;;;;;84.85;32.63;;;;;;;13.71;90.03;100342.75;5030652;28;20040;-83
2022/10/13 10:47:15;;;;;;;93.70;33.30;;;;;;;13.68;90.26;100330.53;5048392;28;20079;-84
2022/10/13 10:49:49;;;;;;;79.80;31.40;;;;;;;13.72;90.17;100326.59;5040328;28;20048;-84
2022/10/13 10:52:22;;;;;;;80.70;31.95;;;;;;;13.71;90.32;100324.91;5056363;28;20055;-84
2022/10/13 10:55:27;;;;;;;71.35;28.15;;;;;;;13.66;90.74;100309.34;5056954;28;20098;-83
2022/10/13 10:58:19;;;;;;;83.85;34.10;;;;;;;13.75;90.97;100299.63;5079833;28;20040;-82
2022/10/13 11:01:12;;;;;;;94.50;35.45;;;;;;;13.73;91.18;100290.91;5072135;28;20090;-83
2022/10/13 11:04:35;;;;;;;86.65;31.85;;;;;;;13.70;91.52;100296.53;5073410;28;20040;-83
2022/10/13 11:07:03;;;;;;;81.15;33.63;;;;;;;13.82;91.16;100303.41;4963534;28;20054;-85
2022/10/13 11:09:41;;;;;;;87.57;33.65;;;;;;;13.79;91.03;100300.16;5045703;28;20048;-85
2022/10/13 11:12:20;;;;;;;84.43;32.90;;;;;;;13.80;90.88;100299.19;5057913;28;20541;-85
2022/10/13 11:14:54;;;;;;;75.90;30.33;;;;;;;13.83;90.77;100301.56;5056223;28;20052;-85
2022/10/13 11:17:30;;;;;;;81.72;32.65;;;;;;;13.83;90.89;100294.38;5062322;28;20052;-85
2022/10/13 11:19:58;;;;;;;79.07;31.77;;;;;;;13.87;90.85;100300.28;5076073;28;20434;-82
2022/10/13 11:22:25;;;;;;;78.45;29.77;;;;;;;13.89;90.90;100298.28;5077262;28;20036;-83
2022/10/13 11:24:59;;;;;;;73.97;29.83;;;;;;;13.87;91.15;100281.59;5041251;28;20094;-85
2022/10/13 11:27:26;;;;;;;;;;;;;;;13.72;92.38;100277.72;5075647;28;20037;-83